createdAt,value
2017-08-25T00:01:03.959Z,100624.49
2017-08-25T00:03:31.408Z,100626.17
2017-08-25T00:05:58.921Z,100624.36
2017-08-25T00:08:26.392Z,100615.69
2017-08-25T00:10:53.853Z,100614.40
2017-08-25T00:13:23.156Z,100613.58
2017-08-25T00:15:50.624Z,100616.52
2017-08-25T00:18:18.096Z,100620.56
2017-08-25T00:20:45.644Z,100614.55
2017-08-25T00:23:13.125Z,100617.23
2017-08-25T00:25:40.657Z,100614.88
2017-08-25T00:28:08.142Z,100612.61
2017-08-25T00:30:35.700Z,100613.17
2017-08-25T00:33:03.192Z,100609.05
2017-08-25T00:35:30.640Z,100606.36
2017-08-25T00:37:58.097Z,100608.72
2017-08-25T00:40:25.577Z,100609.05
2017-08-25T00:42:53.037Z,100600.89
2017-08-25T00:45:20.524Z,100601.20
2017-08-25T00:47:47.981Z,100602.69
2017-08-25T00:50:15.462Z,100608.25
2017-08-25T00:52:42.925Z,100612.48
2017-08-25T00:55:10.408Z,100604.62
2017-08-25T00:57:37.876Z,100605.25
2017-08-25T01:00:05.360Z,100612.59
2017-08-25T01:02:32.836Z,100617.89
2017-08-25T01:05:00.293Z,100614.58
2017-08-25T01:07:27.824Z,100609.61
2017-08-25T01:09:55.271Z,100611.25
2017-08-25T01:12:22.757Z,100611.72
2017-08-25T01:14:50.336Z,100608.96
2017-08-25T01:17:17.821Z,100612.39
2017-08-25T01:19:45.289Z,100616.19
2017-08-25T01:22:12.770Z,100609.09
2017-08-25T01:24:40.249Z,100617.05
2017-08-25T01:27:07.996Z,100610.11
2017-08-25T01:29:35.471Z,100607.91
2017-08-25T01:32:03.009Z,100614.88
2017-08-25T01:34:30.464Z,100609.25
2017-08-25T01:36:58.009Z,100618.64
2017-08-25T01:39:25.777Z,100624.88
2017-08-25T01:41:53.241Z,100627.64
2017-08-25T01:44:20.724Z,100617.92
2017-08-25T01:46:48.248Z,100623.28
2017-08-25T01:49:15.809Z,100624.61
2017-08-25T01:51:43.264Z,100628.02
2017-08-25T01:54:10.743Z,100621.35
2017-08-25T01:56:38.188Z,100614.55
2017-08-25T01:59:05.737Z,100618.88
2017-08-25T02:01:33.296Z,100618.83
2017-08-25T02:04:01.065Z,100611.47
2017-08-25T02:06:28.625Z,100607.69
2017-08-25T02:08:56.085Z,100609.84
2017-08-25T02:11:23.658Z,100609.38
2017-08-25T02:13:51.120Z,100612.59
2017-08-25T02:16:18.604Z,100604.30
2017-08-25T02:18:46.060Z,100607.07
2017-08-25T02:21:13.531Z,100606.20
2017-08-25T02:23:41.009Z,100607.25
2017-08-25T02:26:08.570Z,100614.44
2017-08-25T02:28:36.141Z,100608.67
2017-08-25T02:31:03.597Z,100596.70
2017-08-25T02:33:31.080Z,100598.58
2017-08-25T02:35:58.604Z,100592.55
2017-08-25T02:38:26.101Z,100601.79
2017-08-25T02:40:53.566Z,100595.58
2017-08-25T02:43:21.100Z,100591.69
2017-08-25T02:45:48.636Z,100594.41
2017-08-25T02:48:16.191Z,100602.20
2017-08-25T02:50:43.765Z,100605.12
2017-08-25T02:53:11.311Z,100604.08
2017-08-25T02:55:38.824Z,100603.56
2017-08-25T02:58:06.296Z,100606.16
2017-08-25T03:00:33.749Z,100611.93
2017-08-25T03:03:01.249Z,100610.11
2017-08-25T03:05:28.713Z,100609.28
2017-08-25T03:07:56.173Z,100607.90
2017-08-25T03:10:23.669Z,100606.69
2017-08-25T03:12:51.129Z,100603.00
2017-08-25T03:15:18.632Z,100596.41
2017-08-25T03:17:46.181Z,100595.20
2017-08-25T03:20:13.661Z,100592.76
2017-08-25T03:22:41.196Z,100594.39
2017-08-25T03:25:08.693Z,100596.38
2017-08-25T03:27:36.150Z,100600.19
2017-08-25T03:30:03.633Z,100604.90
2017-08-25T03:32:31.278Z,100600.05
2017-08-25T03:34:58.798Z,100597.75
2017-08-25T03:37:26.257Z,100598.53
2017-08-25T03:39:53.801Z,100610.02
2017-08-25T03:42:21.373Z,100601.21
2017-08-25T03:44:48.928Z,100600.22
2017-08-25T03:47:16.504Z,100601.31
2017-08-25T03:49:43.959Z,100597.28
2017-08-25T03:52:11.453Z,100605.38
2017-08-25T03:54:38.953Z,100606.14
2017-08-25T03:57:06.445Z,100607.66
2017-08-25T03:59:33.968Z,100601.95
2017-08-25T04:02:01.461Z,100599.53
2017-08-25T04:04:28.926Z,100597.09
2017-08-25T04:06:56.401Z,100594.18
2017-08-25T04:09:23.893Z,100597.66
2017-08-25T04:11:51.349Z,100596.02
2017-08-25T04:14:18.820Z,100598.83
2017-08-25T04:16:46.286Z,100601.65
2017-08-25T04:19:13.819Z,100596.02
2017-08-25T04:21:41.400Z,100602.56
2017-08-25T04:24:08.897Z,100605.95
2017-08-25T04:26:36.397Z,100606.30
2017-08-25T04:29:03.860Z,100617.89
2017-08-25T04:31:31.414Z,100605.20
2017-08-25T04:33:58.876Z,100606.91
2017-08-25T04:36:26.357Z,100606.86
2017-08-25T04:38:53.818Z,100609.95
2017-08-25T04:41:21.297Z,100613.05
2017-08-25T04:43:48.756Z,100622.72
2017-08-25T04:46:16.249Z,100625.42
2017-08-25T04:48:43.717Z,100620.53
2017-08-25T04:51:11.208Z,100622.80
2017-08-25T04:53:38.660Z,100623.25
2017-08-25T04:56:06.122Z,100623.84
2017-08-25T04:58:34.690Z,100625.03
2017-08-25T05:01:02.329Z,100637.47
2017-08-25T05:03:29.806Z,100627.59
2017-08-25T05:05:57.269Z,100621.67
2017-08-25T05:08:24.749Z,100624.28
2017-08-25T05:10:52.253Z,100627.44
2017-08-25T05:13:19.735Z,100625.14
2017-08-25T05:15:47.268Z,100624.91
2017-08-25T05:18:14.733Z,100620.25
2017-08-25T05:20:42.260Z,100617.52
2017-08-25T05:23:09.725Z,100607.83
2017-08-25T05:25:37.297Z,100617.13
2017-08-25T05:28:04.952Z,100614.06
2017-08-25T05:30:32.517Z,100608.38
2017-08-25T05:33:02.716Z,100609.16
2017-08-25T05:35:30.345Z,100603.08
2017-08-25T05:37:57.809Z,100605.45
2017-08-25T05:40:25.555Z,100612.37
2017-08-25T05:42:53.049Z,100617.81
2017-08-25T05:45:20.528Z,100627.17
2017-08-25T05:47:47.989Z,100628.59
2017-08-25T05:50:15.447Z,100637.17
2017-08-25T05:52:42.979Z,100634.55
2017-08-25T05:55:10.461Z,100628.22
2017-08-25T05:57:37.968Z,100626.13
2017-08-25T06:00:05.429Z,100624.92
2017-08-25T06:02:32.954Z,100623.45
2017-08-25T06:05:00.433Z,100617.78
2017-08-25T06:07:27.915Z,100619.99
2017-08-25T06:09:55.405Z,100617.53
2017-08-25T06:12:22.890Z,100624.66
2017-08-25T06:14:50.425Z,100624.45
2017-08-25T06:17:17.887Z,100625.23
2017-08-25T06:19:45.367Z,100632.69
2017-08-25T06:22:12.830Z,100629.30
2017-08-25T06:24:40.366Z,100633.48
2017-08-25T06:27:07.830Z,100641.44
2017-08-25T06:29:35.317Z,100644.92
2017-08-25T06:32:02.821Z,100651.14
2017-08-25T06:34:30.387Z,100650.03
2017-08-25T06:36:57.946Z,100661.72
2017-08-25T06:39:25.440Z,100659.47
2017-08-25T06:41:52.901Z,100663.52
2017-08-25T06:44:20.424Z,100657.49
2017-08-25T06:46:47.942Z,100654.94
2017-08-25T06:49:15.392Z,100648.60
2017-08-25T06:51:42.874Z,100645.06
2017-08-25T06:54:10.345Z,100637.91
2017-08-25T06:56:37.825Z,100647.64
2017-08-25T06:59:05.280Z,100647.02
2017-08-25T07:01:32.806Z,100644.63
2017-08-25T07:04:00.373Z,100648.23
2017-08-25T07:06:27.852Z,100649.66
2017-08-25T07:08:56.075Z,100656.19
2017-08-25T07:11:23.657Z,100659.66
2017-08-25T07:13:51.108Z,100666.12
2017-08-25T07:16:18.681Z,100667.55
2017-08-25T07:18:46.137Z,100671.72
2017-08-25T07:21:13.594Z,100674.28
2017-08-25T07:23:41.077Z,100669.36
2017-08-25T07:26:08.596Z,100669.62
2017-08-25T07:28:36.084Z,100665.97
2017-08-25T07:31:03.617Z,100662.98
2017-08-25T07:33:31.102Z,100672.95
2017-08-25T07:35:58.575Z,100656.29
2017-08-25T07:38:26.083Z,100654.95
2017-08-25T07:40:53.645Z,100658.27
2017-08-25T07:43:21.113Z,100659.64
2017-08-25T07:45:48.604Z,100653.16
2017-08-25T07:48:16.065Z,100646.52
2017-08-25T07:50:43.550Z,100651.06
2017-08-25T07:53:11.047Z,100649.63
2017-08-25T07:55:38.584Z,100640.92
2017-08-25T07:58:06.056Z,100640.52
2017-08-25T08:00:33.602Z,100643.23
2017-08-25T08:03:01.158Z,100648.55
2017-08-25T08:05:28.646Z,100647.07
2017-08-25T08:07:56.103Z,100643.98
2017-08-25T08:10:23.562Z,100646.24
2017-08-25T08:12:51.060Z,100645.39
2017-08-25T08:15:18.524Z,100648.42
2017-08-25T08:17:46.025Z,100648.05
2017-08-25T08:20:13.488Z,100651.48
2017-08-25T08:22:41.026Z,100651.02
2017-08-25T08:25:08.573Z,100641.78
2017-08-25T08:27:36.064Z,100633.21
2017-08-25T08:30:03.526Z,100634.44
2017-08-25T08:32:31.058Z,100635.72
2017-08-25T08:34:58.551Z,100627.77
2017-08-25T08:37:26.033Z,100629.49
2017-08-25T08:39:53.521Z,100618.98
2017-08-25T08:42:21.052Z,100628.23
2017-08-25T08:44:48.542Z,100627.35
2017-08-25T08:47:16.095Z,100629.75
2017-08-25T08:49:43.656Z,100630.92
2017-08-25T08:52:11.213Z,100633.37
2017-08-25T08:54:38.681Z,100633.02
2017-08-25T08:57:06.223Z,100637.63
2017-08-25T08:59:33.745Z,100629.69
2017-08-25T09:02:01.249Z,100628.68
2017-08-25T09:04:28.737Z,100622.74
2017-08-25T09:06:56.260Z,100625.34
2017-08-25T09:09:23.730Z,100628.41
2017-08-25T09:11:51.256Z,100627.37
2017-08-25T09:14:18.744Z,100628.75
2017-08-25T09:16:46.241Z,100629.31
2017-08-25T09:19:13.769Z,100619.52
2017-08-25T09:21:41.322Z,100616.23
2017-08-25T09:24:08.862Z,100619.88
2017-08-25T09:26:36.325Z,100622.20
2017-08-25T09:29:03.893Z,100619.73
2017-08-25T09:31:31.643Z,100609.83
2017-08-25T09:33:59.208Z,100616.64
2017-08-25T09:36:26.765Z,100622.14
2017-08-25T09:38:54.242Z,100619.91
2017-08-25T09:41:21.705Z,100616.83
2017-08-25T09:43:49.684Z,100614.48
2017-08-25T09:46:17.193Z,100608.77
2017-08-25T09:48:44.681Z,100602.00
2017-08-25T09:51:12.141Z,100604.25
2017-08-25T09:53:39.617Z,100597.39
2017-08-25T09:56:07.082Z,100597.64
2017-08-25T09:58:34.561Z,100598.65
2017-08-25T10:01:02.012Z,100602.29
2017-08-25T10:03:29.496Z,100594.39
2017-08-25T10:05:57.068Z,100607.13
2017-08-25T10:08:24.631Z,100603.94
2017-08-25T10:10:52.317Z,100598.82
2017-08-25T10:13:19.834Z,100594.06
2017-08-25T10:15:47.293Z,100584.77
2017-08-25T10:18:14.856Z,100579.12
2017-08-25T10:20:42.333Z,100575.55
2017-08-25T10:23:09.869Z,100581.12
2017-08-25T10:25:37.352Z,100576.44
2017-08-25T10:28:04.804Z,100571.53
2017-08-25T10:30:32.338Z,100570.55
2017-08-25T10:33:11.967Z,100569.12
2017-08-25T10:38:43.677Z,100567.69
2017-08-25T10:41:22.965Z,100570.00
2017-08-25T10:44:02.314Z,100563.98
2017-08-25T10:46:29.787Z,100562.28
2017-08-25T10:48:57.241Z,100564.00
2017-08-25T10:51:24.722Z,100559.44
2017-08-25T10:53:52.233Z,100558.30
2017-08-25T10:56:19.713Z,100556.14
2017-08-25T10:58:47.263Z,100549.20
2017-08-25T11:01:14.782Z,100552.45
2017-08-25T11:03:42.253Z,100553.13
2017-08-25T11:06:09.817Z,100552.34
2017-08-25T11:08:37.369Z,100542.22
2017-08-25T11:11:04.836Z,100541.72
2017-08-25T11:13:32.427Z,100535.80
2017-08-25T11:15:59.902Z,100536.66
2017-08-25T11:18:27.390Z,100532.14
2017-08-25T11:20:54.848Z,100524.77
2017-08-25T11:23:22.325Z,100520.55
2017-08-25T11:25:49.810Z,100524.10
2017-08-25T11:28:17.300Z,100513.30
2017-08-25T11:30:45.800Z,100514.73
2017-08-25T11:33:13.277Z,100516.52
2017-08-25T11:35:40.760Z,100509.92
2017-08-25T11:38:08.217Z,100500.23
2017-08-25T11:40:35.697Z,100519.73
2017-08-25T11:43:08.290Z,100518.28
2017-08-25T11:45:35.924Z,100519.00
2017-08-25T11:48:03.409Z,100518.67
2017-08-25T11:50:30.888Z,100515.13
2017-08-25T11:52:58.350Z,100516.10
2017-08-25T11:55:25.842Z,100514.84
2017-08-25T11:57:53.875Z,100505.16
2017-08-25T12:00:21.359Z,100513.03
2017-08-25T12:02:48.836Z,100509.83
2017-08-25T12:05:16.376Z,100508.78
2017-08-25T12:07:43.862Z,100506.89
2017-08-25T12:10:11.356Z,100504.41
2017-08-25T12:12:38.915Z,100503.37
2017-08-25T12:15:06.471Z,100498.11
2017-08-25T12:17:33.982Z,100502.30
2017-08-25T12:20:01.502Z,100497.86
2017-08-25T12:22:29.008Z,100499.39
2017-08-25T12:24:56.518Z,100499.48
2017-08-25T12:27:23.996Z,100492.16
2017-08-25T12:29:51.520Z,100495.95
2017-08-25T12:32:18.992Z,100504.11
2017-08-25T12:34:46.536Z,100507.42
2017-08-25T12:37:14.093Z,100499.98
2017-08-25T12:39:41.585Z,100500.53
2017-08-25T12:42:09.044Z,100494.80
2017-08-25T12:44:36.515Z,100493.69
2017-08-25T12:47:03.963Z,100493.81
2017-08-25T12:49:31.489Z,100487.34
2017-08-25T12:51:59.037Z,100491.37
2017-08-25T12:54:26.525Z,100488.22
2017-08-25T12:56:53.980Z,100484.95
2017-08-25T12:59:21.445Z,100485.13
2017-08-25T13:01:48.952Z,100481.31
2017-08-25T13:04:16.400Z,100465.10
2017-08-25T13:06:43.883Z,100468.70
2017-08-25T13:09:11.349Z,100458.27
2017-08-25T13:11:38.825Z,100458.43
2017-08-25T13:14:06.352Z,100448.16
2017-08-25T13:16:33.841Z,100451.78
2017-08-25T13:19:01.365Z,100449.52
2017-08-25T13:21:28.939Z,100453.25
2017-08-25T13:23:56.492Z,100449.12
2017-08-25T13:26:24.094Z,100451.24
2017-08-25T13:28:51.621Z,100445.48
2017-08-25T13:31:19.086Z,100454.41
2017-08-25T13:33:46.571Z,100440.43
2017-08-25T13:36:14.082Z,100439.77
2017-08-25T13:38:41.582Z,100429.64
2017-08-25T13:41:09.094Z,100439.67
2017-08-25T13:43:36.681Z,100440.45
2017-08-25T13:46:04.231Z,100436.02
2017-08-25T13:48:31.817Z,100429.56
2017-08-25T13:50:59.285Z,100431.02
2017-08-25T13:53:26.755Z,100424.52
2017-08-25T13:55:54.234Z,100422.89
2017-08-25T13:58:21.729Z,100415.36
2017-08-25T14:00:49.213Z,100413.68
2017-08-25T14:03:16.716Z,100411.30
2017-08-25T14:05:44.268Z,100402.22
2017-08-25T14:08:11.822Z,100402.45
2017-08-25T14:10:39.402Z,100393.09
2017-08-25T14:13:06.863Z,100395.52
2017-08-25T14:15:34.397Z,100388.84
2017-08-25T14:18:01.962Z,100387.60
2017-08-25T14:20:29.451Z,100380.27
2017-08-25T14:22:56.963Z,100378.55
2017-08-25T14:25:24.435Z,100381.09
2017-08-25T14:27:51.897Z,100380.39
2017-08-25T14:30:19.439Z,100373.33
2017-08-25T14:32:46.891Z,100372.14
2017-08-25T14:35:14.359Z,100367.69
2017-08-25T14:37:41.914Z,100362.25
2017-08-25T14:40:09.356Z,100356.67
2017-08-25T14:42:36.948Z,100351.15
2017-08-25T14:45:04.765Z,100355.06
2017-08-25T14:47:32.313Z,100356.44
2017-08-25T14:49:59.994Z,100346.29
2017-08-25T14:52:27.586Z,100361.12
2017-08-25T14:54:55.158Z,100354.42
2017-08-25T14:57:22.645Z,100356.31
2017-08-25T14:59:50.165Z,100357.80
2017-08-25T15:02:17.655Z,100349.83
2017-08-25T15:04:45.175Z,100342.97
2017-08-25T15:07:12.649Z,100347.92
2017-08-25T15:09:40.132Z,100348.66
2017-08-25T15:12:07.594Z,100347.97
2017-08-25T15:14:35.094Z,100357.86
2017-08-25T15:17:02.547Z,100353.27
2017-08-25T15:19:30.134Z,100360.72
2017-08-25T15:21:57.596Z,100357.32
2017-08-25T15:24:25.089Z,100352.65
2017-08-25T15:26:52.579Z,100346.95
2017-08-25T15:29:20.057Z,100345.77
2017-08-25T15:31:47.663Z,100351.45
2017-08-25T15:34:15.132Z,100363.49
2017-08-25T15:36:42.595Z,100362.02
2017-08-25T15:39:10.177Z,100348.59
2017-08-25T15:41:37.670Z,100353.68
2017-08-25T15:44:05.153Z,100358.97
2017-08-25T15:46:32.633Z,100375.65
2017-08-25T15:49:00.101Z,100388.53
2017-08-25T15:51:27.625Z,100401.01
2017-08-25T15:53:55.092Z,100405.89
2017-08-25T15:56:22.568Z,100399.90
2017-08-25T15:58:50.127Z,100405.47
2017-08-25T16:01:17.628Z,100409.66
2017-08-25T16:03:45.145Z,100424.13
2017-08-25T16:06:12.616Z,100464.14
2017-08-25T16:08:40.095Z,100522.27
2017-08-25T16:11:07.576Z,100519.39
2017-08-25T16:13:35.028Z,100537.74
2017-08-25T16:16:02.532Z,100559.72
2017-08-25T16:18:29.993Z,100552.00
2017-08-25T16:20:57.468Z,100513.70
2017-08-25T16:23:24.998Z,100489.88
2017-08-25T16:25:52.477Z,100480.33
2017-08-25T16:28:20.015Z,100528.70
2017-08-25T16:30:47.505Z,100536.05
2017-08-25T16:33:15.037Z,100521.22
2017-08-25T16:35:42.586Z,100490.27
2017-08-25T16:38:10.157Z,100475.31
2017-08-25T16:40:37.674Z,100451.61
2017-08-25T16:43:05.150Z,100441.31
2017-08-25T16:45:32.629Z,100428.25
2017-08-25T16:48:00.109Z,100414.13
2017-08-25T16:50:27.641Z,100409.72
2017-08-25T16:52:55.205Z,100403.84
2017-08-25T16:55:22.651Z,100397.40
2017-08-25T16:57:50.137Z,100391.48
2017-08-25T17:00:17.622Z,100394.95
2017-08-25T17:02:45.133Z,100398.75
2017-08-25T17:05:12.613Z,100404.88
2017-08-25T17:07:40.135Z,100407.31
2017-08-25T17:10:07.601Z,100416.48
2017-08-25T17:12:35.162Z,100412.52
2017-08-25T17:15:02.616Z,100390.33
2017-08-25T17:17:30.100Z,100377.09
2017-08-25T17:19:57.569Z,100382.73
2017-08-25T17:22:25.040Z,100387.79
2017-08-25T17:24:52.498Z,100387.17
2017-08-25T17:27:19.977Z,100408.11
2017-08-25T17:29:47.458Z,100397.34
2017-08-25T17:32:15.004Z,100390.84
2017-08-25T17:34:42.460Z,100397.34
2017-08-25T17:37:10.022Z,100414.30
2017-08-25T17:39:37.489Z,100425.44
2017-08-25T17:42:05.046Z,100417.32
2017-08-25T17:44:32.647Z,100406.95
2017-08-25T17:47:00.129Z,100401.69
2017-08-25T17:49:27.722Z,100406.13
2017-08-25T17:51:55.282Z,100403.77
2017-08-25T17:54:22.740Z,100412.28
2017-08-25T17:56:50.319Z,100409.69
2017-08-25T17:59:17.798Z,100411.36
2017-08-25T18:01:45.262Z,100409.80
2017-08-25T18:04:12.758Z,100414.48
2017-08-25T18:06:40.325Z,100409.05
2017-08-25T18:09:07.801Z,100402.13
2017-08-25T18:11:35.343Z,100407.30
2017-08-25T18:14:02.913Z,100404.28
2017-08-25T18:16:30.453Z,100404.22
2017-08-25T18:18:57.928Z,100398.47
2017-08-25T18:21:25.473Z,100401.47
2017-08-25T18:23:52.958Z,100406.27
2017-08-25T18:26:20.471Z,100404.12
2017-08-25T18:28:47.949Z,100412.09
2017-08-25T18:31:15.409Z,100410.69
2017-08-25T18:33:42.888Z,100408.66
2017-08-25T18:36:10.407Z,100412.59
2017-08-25T18:38:37.965Z,100429.20
2017-08-25T18:41:05.530Z,100430.27
2017-08-25T18:43:33.126Z,100427.59
2017-08-25T18:46:00.591Z,100425.78
2017-08-25T18:48:28.071Z,100434.56
2017-08-25T18:50:55.568Z,100434.66
2017-08-25T18:53:23.049Z,100436.06
2017-08-25T18:55:50.569Z,100428.92
2017-08-25T18:58:18.047Z,100429.21
2017-08-25T19:00:45.496Z,100435.03
2017-08-25T19:03:12.954Z,100446.04
2017-08-25T19:05:40.427Z,100445.72
2017-08-25T19:08:07.970Z,100440.22
2017-08-25T19:10:35.486Z,100433.89
2017-08-25T19:13:02.935Z,100434.92
2017-08-25T19:15:30.425Z,100438.50
2017-08-25T19:17:57.997Z,100434.33
2017-08-25T19:20:25.543Z,100435.93
2017-08-25T19:22:53.102Z,100425.22
2017-08-25T19:25:20.936Z,100421.23
2017-08-25T19:27:48.429Z,100422.38
2017-08-25T19:30:15.994Z,100411.75
2017-08-25T19:32:43.443Z,100417.05
2017-08-25T19:35:11.009Z,100417.52
2017-08-25T19:37:38.563Z,100415.25
2017-08-25T19:40:06.125Z,100418.08
2017-08-25T19:42:33.577Z,100417.05
2017-08-25T19:45:01.066Z,100412.41
2017-08-25T19:47:28.677Z,100409.84
2017-08-25T19:49:56.151Z,100417.05
2017-08-25T19:52:23.709Z,100432.36
2017-08-25T19:54:51.268Z,100427.28
2017-08-25T19:57:18.725Z,100431.88
2017-08-25T19:59:46.234Z,100424.63
2017-08-25T20:02:13.756Z,100428.27
2017-08-25T20:04:41.293Z,100417.97
2017-08-25T20:07:08.851Z,100420.09
2017-08-25T20:09:36.360Z,100427.73
2017-08-25T20:12:03.879Z,100435.63
2017-08-25T20:14:32.424Z,100436.34
2017-08-25T20:16:59.903Z,100439.88
2017-08-25T20:19:27.372Z,100432.09
2017-08-25T20:21:54.934Z,100437.39
2017-08-25T20:24:22.417Z,100438.56
2017-08-25T20:26:49.956Z,100434.10
2017-08-25T20:29:17.501Z,100430.10
2017-08-25T20:31:44.994Z,100437.55
2017-08-25T20:34:12.483Z,100435.11
2017-08-25T20:36:39.979Z,100434.64
2017-08-25T20:39:07.483Z,100437.55
2017-08-25T20:41:34.994Z,100435.95
2017-08-25T20:44:02.465Z,100441.16
2017-08-25T20:46:29.958Z,100437.64
2017-08-25T20:48:57.417Z,100437.42
2017-08-25T20:51:24.902Z,100437.57
2017-08-25T20:53:52.374Z,100443.86
2017-08-25T20:56:19.847Z,100447.75
2017-08-25T20:58:47.393Z,100459.91
2017-08-25T21:01:14.968Z,100457.37
2017-08-25T21:03:42.420Z,100451.01
2017-08-25T21:06:09.889Z,100462.98
2017-08-25T21:08:37.373Z,100458.28
2017-08-25T21:11:04.854Z,100456.40
2017-08-25T21:13:32.330Z,100458.87
2017-08-25T21:15:59.892Z,100457.94
2017-08-25T21:18:27.441Z,100456.19
2017-08-25T21:20:54.916Z,100468.95
2017-08-25T21:23:22.387Z,100473.25
2017-08-25T21:25:49.874Z,100469.28
2017-08-25T21:28:17.369Z,100467.32
2017-08-25T21:30:44.878Z,100459.70
2017-08-25T21:33:12.397Z,100460.45
2017-08-25T21:35:39.949Z,100463.20
2017-08-25T21:38:07.396Z,100464.53
2017-08-25T21:40:34.859Z,100462.97
2017-08-25T21:43:02.337Z,100467.32
2017-08-25T21:45:29.871Z,100468.09
2017-08-25T21:47:57.350Z,100464.34
2017-08-25T21:50:24.815Z,100465.67
2017-08-25T21:52:52.306Z,100465.72
2017-08-25T21:55:19.813Z,100461.33
2017-08-25T21:57:47.293Z,100452.27
2017-08-25T22:00:14.752Z,100454.26
2017-08-25T22:02:42.282Z,100457.47
2017-08-25T22:05:09.766Z,100459.42
2017-08-25T22:07:37.235Z,100460.09
2017-08-25T22:10:04.700Z,100466.34
2017-08-25T22:12:32.208Z,100466.53
2017-08-25T22:14:59.765Z,100465.67
2017-08-25T22:17:27.330Z,100459.23
2017-08-25T22:19:54.875Z,100465.52
2017-08-25T22:22:22.348Z,100467.83
2017-08-25T22:24:49.890Z,100459.80
2017-08-25T22:27:17.381Z,100464.17
2017-08-25T22:29:44.837Z,100459.90
2017-08-25T22:32:12.318Z,100462.82
2017-08-25T22:34:39.833Z,100466.43
2017-08-25T22:37:07.392Z,100464.25
2017-08-25T22:39:34.845Z,100460.28
2017-08-25T22:42:02.333Z,100453.58
2017-08-25T22:44:29.783Z,100453.20
2017-08-25T22:46:57.268Z,100446.42
2017-08-25T22:49:24.782Z,100455.35
2017-08-25T22:51:52.535Z,100453.13
2017-08-25T22:54:20.094Z,100456.05
2017-08-25T22:56:47.544Z,100446.66
2017-08-25T22:59:15.039Z,100440.19
2017-08-25T23:01:42.517Z,100443.16
2017-08-25T23:04:10.047Z,100436.41
2017-08-25T23:06:38.506Z,100426.32
2017-08-25T23:09:06.000Z,100435.52
2017-08-25T23:11:33.485Z,100426.11
2017-08-25T23:14:00.977Z,100425.58
2017-08-25T23:16:28.423Z,100417.73
2017-08-25T23:18:55.891Z,100418.32
2017-08-25T23:21:23.431Z,100410.80
2017-08-25T23:23:50.973Z,100405.32
2017-08-25T23:26:18.456Z,100400.22
2017-08-25T23:28:45.981Z,100398.75
2017-08-25T23:31:13.465Z,100394.17
2017-08-25T23:33:41.139Z,100396.17
2017-08-25T23:36:08.684Z,100399.11
2017-08-25T23:38:36.173Z,100402.70
2017-08-25T23:41:03.659Z,100405.20
2017-08-25T23:43:31.214Z,100405.95
2017-08-25T23:45:58.718Z,100402.77
2017-08-25T23:48:26.283Z,100403.33
2017-08-25T23:50:53.756Z,100408.72
2017-08-25T23:53:21.291Z,100400.25
2017-08-25T23:55:48.775Z,100398.87
2017-08-25T23:58:16.316Z,100401.64
